sensor_id;sensor_type;location;lat;lon;timestamp;P1;durP1;ratioP1;P2;durP2;ratioP2
18695;SDS011;22617;43.690;27.956;2023-01-26T00:04:23;35.33;;;12.47;;
18695;SDS011;22617;43.690;27.956;2023-01-26T00:09:27;39.83;;;13.73;;
18695;SDS011;22617;43.690;27.956;2023-01-26T00:14:32;35.47;;;12.73;;
18695;SDS011;22617;43.690;27.956;2023-01-26T00:19:51;39.23;;;12.73;;
18695;SDS011;22617;43.690;27.956;2023-01-26T00:24:56;33.43;;;11.97;;
18695;SDS011;22617;43.690;27.956;2023-01-26T00:30:01;37.17;;;12.00;;
18695;SDS011;22617;43.690;27.956;2023-01-26T00:35:06;36.93;;;12.37;;
18695;SDS011;22617;43.690;27.956;2023-01-26T00:40:10;38.63;;;12.63;;
18695;SDS011;22617;43.690;27.956;2023-01-26T00:45:15;32.87;;;12.60;;
18695;SDS011;22617;43.690;27.956;2023-01-26T00:50:19;40.23;;;13.07;;
18695;SDS011;22617;43.690;27.956;2023-01-26T00:55:23;37.63;;;13.20;;
18695;SDS011;22617;43.690;27.956;2023-01-26T01:00:36;33.20;;;12.60;;
18695;SDS011;22617;43.690;27.956;2023-01-26T01:05:40;32.87;;;11.63;;
18695;SDS011;22617;43.690;27.956;2023-01-26T01:10:46;33.97;;;12.00;;
18695;SDS011;22617;43.690;27.956;2023-01-26T01:15:51;38.47;;;13.60;;
18695;SDS011;22617;43.690;27.956;2023-01-26T01:20:55;39.40;;;13.77;;
18695;SDS011;22617;43.690;27.956;2023-01-26T01:26:00;38.17;;;13.27;;
18695;SDS011;22617;43.690;27.956;2023-01-26T01:31:06;36.77;;;12.17;;
18695;SDS011;22617;43.690;27.956;2023-01-26T01:36:12;34.43;;;12.57;;
18695;SDS011;22617;43.690;27.956;2023-01-26T01:41:19;40.33;;;12.80;;
18695;SDS011;22617;43.690;27.956;2023-01-26T01:46:28;35.67;;;13.07;;
18695;SDS011;22617;43.690;27.956;2023-01-26T01:51:35;38.30;;;12.60;;
18695;SDS011;22617;43.690;27.956;2023-01-26T01:56:46;42.27;;;13.33;;
18695;SDS011;22617;43.690;27.956;2023-01-26T02:01:54;43.23;;;13.97;;
18695;SDS011;22617;43.690;27.956;2023-01-26T02:06:58;41.37;;;13.10;;
18695;SDS011;22617;43.690;27.956;2023-01-26T02:12:03;50.13;;;14.53;;
18695;SDS011;22617;43.690;27.956;2023-01-26T02:17:12;47.43;;;14.70;;
18695;SDS011;22617;43.690;27.956;2023-01-26T02:22:20;51.60;;;15.67;;
18695;SDS011;22617;43.690;27.956;2023-01-26T02:27:31;42.90;;;14.77;;
18695;SDS011;22617;43.690;27.956;2023-01-26T02:32:35;45.60;;;14.70;;
18695;SDS011;22617;43.690;27.956;2023-01-26T02:37:40;44.40;;;14.43;;
18695;SDS011;22617;43.690;27.956;2023-01-26T02:42:45;53.10;;;15.47;;
18695;SDS011;22617;43.690;27.956;2023-01-26T02:47:49;49.27;;;15.77;;
18695;SDS011;22617;43.690;27.956;2023-01-26T02:52:53;51.20;;;15.97;;
18695;SDS011;22617;43.690;27.956;2023-01-26T02:58:00;57.77;;;17.00;;
18695;SDS011;22617;43.690;27.956;2023-01-26T03:03:09;49.87;;;15.13;;
18695;SDS011;22617;43.690;27.956;2023-01-26T03:08:16;54.33;;;14.73;;
18695;SDS011;22617;43.690;27.956;2023-01-26T03:13:21;60.00;;;14.23;;
18695;SDS011;22617;43.690;27.956;2023-01-26T03:18:24;62.97;;;15.20;;
18695;SDS011;22617;43.690;27.956;2023-01-26T03:23:46;49.63;;;15.20;;
18695;SDS011;22617;43.690;27.956;2023-01-26T03:29:09;46.50;;;14.53;;
18695;SDS011;22617;43.690;27.956;2023-01-26T03:34:15;77.13;;;15.70;;
18695;SDS011;22617;43.690;27.956;2023-01-26T03:39:20;76.97;;;15.30;;
18695;SDS011;22617;43.690;27.956;2023-01-26T03:44:43;79.03;;;16.27;;
18695;SDS011;22617;43.690;27.956;2023-01-26T03:50:05;80.57;;;18.30;;
18695;SDS011;22617;43.690;27.956;2023-01-26T03:55:27;44.30;;;14.30;;
18695;SDS011;22617;43.690;27.956;2023-01-26T04:00:50;41.43;;;14.63;;
18695;SDS011;22617;43.690;27.956;2023-01-26T04:05:56;93.33;;;20.47;;
18695;SDS011;22617;43.690;27.956;2023-01-26T04:11:22;66.30;;;19.33;;
18695;SDS011;22617;43.690;27.956;2023-01-26T04:16:27;101.53;;;20.60;;
18695;SDS011;22617;43.690;27.956;2023-01-26T04:21:49;135.10;;;22.10;;
18695;SDS011;22617;43.690;27.956;2023-01-26T04:26:54;76.23;;;18.70;;
18695;SDS011;22617;43.690;27.956;2023-01-26T04:32:03;63.77;;;16.73;;
18695;SDS011;22617;43.690;27.956;2023-01-26T04:37:08;80.50;;;14.83;;
18695;SDS011;22617;43.690;27.956;2023-01-26T04:42:19;77.40;;;17.03;;
18695;SDS011;22617;43.690;27.956;2023-01-26T04:47:27;75.03;;;18.03;;
18695;SDS011;22617;43.690;27.956;2023-01-26T04:52:31;168.13;;;19.17;;
18695;SDS011;22617;43.690;27.956;2023-01-26T04:57:35;73.97;;;14.83;;
18695;SDS011;22617;43.690;27.956;2023-01-26T05:02:41;103.23;;;16.40;;
18695;SDS011;22617;43.690;27.956;2023-01-26T05:07:45;128.53;;;18.37;;
18695;SDS011;22617;43.690;27.956;2023-01-26T05:12:52;101.60;;;17.70;;
18695;SDS011;22617;43.690;27.956;2023-01-26T05:18:03;127.63;;;18.23;;
18695;SDS011;22617;43.690;27.956;2023-01-26T05:23:33;136.47;;;17.90;;
18695;SDS011;22617;43.690;27.956;2023-01-26T05:28:57;169.20;;;17.07;;
18695;SDS011;22617;43.690;27.956;2023-01-26T05:34:03;91.90;;;16.13;;
18695;SDS011;22617;43.690;27.956;2023-01-26T05:39:09;134.13;;;17.37;;
18695;SDS011;22617;43.690;27.956;2023-01-26T05:44:13;121.83;;;15.33;;
18695;SDS011;22617;43.690;27.956;2023-01-26T05:49:23;129.50;;;16.70;;
18695;SDS011;22617;43.690;27.956;2023-01-26T05:54:28;99.87;;;13.53;;
18695;SDS011;22617;43.690;27.956;2023-01-26T05:59:33;85.40;;;12.50;;
18695;SDS011;22617;43.690;27.956;2023-01-26T06:04:42;124.93;;;15.00;;
18695;SDS011;22617;43.690;27.956;2023-01-26T06:09:45;90.77;;;14.00;;
18695;SDS011;22617;43.690;27.956;2023-01-26T06:14:56;92.07;;;12.97;;
18695;SDS011;22617;43.690;27.956;2023-01-26T06:20:10;70.40;;;12.90;;
18695;SDS011;22617;43.690;27.956;2023-01-26T06:25:21;128.97;;;14.17;;
18695;SDS011;22617;43.690;27.956;2023-01-26T06:30:25;29.77;;;10.17;;
18695;SDS011;22617;43.690;27.956;2023-01-26T06:35:36;26.60;;;10.07;;
18695;SDS011;22617;43.690;27.956;2023-01-26T06:40:44;23.97;;;9.63;;
18695;SDS011;22617;43.690;27.956;2023-01-26T06:45:48;48.30;;;11.87;;
18695;SDS011;22617;43.690;27.956;2023-01-26T06:50:56;30.67;;;11.53;;
18695;SDS011;22617;43.690;27.956;2023-01-26T06:56:06;74.53;;;14.37;;
18695;SDS011;22617;43.690;27.956;2023-01-26T07:01:24;94.80;;;16.13;;
18695;SDS011;22617;43.690;27.956;2023-01-26T07:06:30;26.27;;;10.67;;
18695;SDS011;22617;43.690;27.956;2023-01-26T07:11:34;37.57;;;9.93;;
18695;SDS011;22617;43.690;27.956;2023-01-26T07:16:38;68.00;;;17.87;;
18695;SDS011;22617;43.690;27.956;2023-01-26T07:21:43;58.50;;;16.87;;
18695;SDS011;22617;43.690;27.956;2023-01-26T07:26:47;56.83;;;18.90;;
18695;SDS011;22617;43.690;27.956;2023-01-26T07:31:51;51.47;;;15.50;;
18695;SDS011;22617;43.690;27.956;2023-01-26T07:36:56;32.33;;;11.77;;
18695;SDS011;22617;43.690;27.956;2023-01-26T07:42:00;43.47;;;15.17;;
18695;SDS011;22617;43.690;27.956;2023-01-26T07:47:15;41.80;;;15.00;;
18695;SDS011;22617;43.690;27.956;2023-01-26T07:52:22;50.07;;;14.07;;
18695;SDS011;22617;43.690;27.956;2023-01-26T07:57:26;41.07;;;14.00;;
18695;SDS011;22617;43.690;27.956;2023-01-26T08:02:30;38.43;;;13.17;;
18695;SDS011;22617;43.690;27.956;2023-01-26T08:07:36;39.37;;;15.03;;
18695;SDS011;22617;43.690;27.956;2023-01-26T08:12:40;51.93;;;21.57;;
18695;SDS011;22617;43.690;27.956;2023-01-26T08:17:43;35.30;;;14.27;;
18695;SDS011;22617;43.690;27.956;2023-01-26T08:22:49;37.50;;;15.93;;
18695;SDS011;22617;43.690;27.956;2023-01-26T08:27:53;34.97;;;14.23;;
18695;SDS011;22617;43.690;27.956;2023-01-26T08:32:56;49.53;;;17.60;;
18695;SDS011;22617;43.690;27.956;2023-01-26T08:38:02;42.70;;;16.70;;
18695;SDS011;22617;43.690;27.956;2023-01-26T08:43:06;36.90;;;13.50;;
18695;SDS011;22617;43.690;27.956;2023-01-26T08:48:10;40.83;;;14.60;;
18695;SDS011;22617;43.690;27.956;2023-01-26T08:53:15;48.47;;;17.73;;
18695;SDS011;22617;43.690;27.956;2023-01-26T08:58:19;47.00;;;17.93;;
18695;SDS011;22617;43.690;27.956;2023-01-26T09:03:23;44.37;;;17.53;;
18695;SDS011;22617;43.690;27.956;2023-01-26T09:08:28;43.33;;;13.93;;
18695;SDS011;22617;43.690;27.956;2023-01-26T09:13:32;40.90;;;14.57;;
18695;SDS011;22617;43.690;27.956;2023-01-26T09:18:37;39.53;;;14.33;;
18695;SDS011;22617;43.690;27.956;2023-01-26T09:23:43;40.33;;;14.43;;
18695;SDS011;22617;43.690;27.956;2023-01-26T09:28:48;36.13;;;13.17;;
18695;SDS011;22617;43.690;27.956;2023-01-26T09:33:52;35.30;;;13.43;;
18695;SDS011;22617;43.690;27.956;2023-01-26T09:38:58;38.47;;;14.03;;
18695;SDS011;22617;43.690;27.956;2023-01-26T09:44:03;38.40;;;13.43;;
18695;SDS011;22617;43.690;27.956;2023-01-26T09:49:11;42.07;;;14.33;;
18695;SDS011;22617;43.690;27.956;2023-01-26T09:54:22;32.83;;;13.97;;
18695;SDS011;22617;43.690;27.956;2023-01-26T09:59:33;38.17;;;13.43;;
18695;SDS011;22617;43.690;27.956;2023-01-26T10:04:44;36.80;;;14.03;;
18695;SDS011;22617;43.690;27.956;2023-01-26T10:09:53;34.93;;;11.77;;
18695;SDS011;22617;43.690;27.956;2023-01-26T10:14:58;35.37;;;13.40;;
18695;SDS011;22617;43.690;27.956;2023-01-26T10:20:06;34.90;;;12.73;;
18695;SDS011;22617;43.690;27.956;2023-01-26T10:25:22;32.67;;;12.63;;
18695;SDS011;22617;43.690;27.956;2023-01-26T10:30:31;31.00;;;13.43;;
18695;SDS011;22617;43.690;27.956;2023-01-26T10:35:35;31.37;;;11.37;;
18695;SDS011;22617;43.690;27.956;2023-01-26T10:40:42;26.67;;;10.93;;
18695;SDS011;22617;43.690;27.956;2023-01-26T10:45:46;37.93;;;11.17;;
18695;SDS011;22617;43.690;27.956;2023-01-26T10:50:51;24.67;;;11.27;;
18695;SDS011;22617;43.690;27.956;2023-01-26T10:56:00;30.07;;;10.63;;
18695;SDS011;22617;43.690;27.956;2023-01-26T11:01:06;24.10;;;9.83;;
18695;SDS011;22617;43.690;27.956;2023-01-26T11:06:13;20.43;;;9.67;;
18695;SDS011;22617;43.690;27.956;2023-01-26T11:11:22;23.17;;;9.77;;
18695;SDS011;22617;43.690;27.956;2023-01-26T11:16:28;25.20;;;9.03;;
18695;SDS011;22617;43.690;27.956;2023-01-26T11:21:33;24.33;;;10.07;;
18695;SDS011;22617;43.690;27.956;2023-01-26T11:26:51;25.80;;;9.07;;
18695;SDS011;22617;43.690;27.956;2023-01-26T11:32:16;27.47;;;9.07;;
18695;SDS011;22617;43.690;27.956;2023-01-26T11:37:32;21.23;;;8.70;;
18695;SDS011;22617;43.690;27.956;2023-01-26T11:42:44;18.70;;;8.40;;
18695;SDS011;22617;43.690;27.956;2023-01-26T11:48:00;18.83;;;8.37;;
18695;SDS011;22617;43.690;27.956;2023-01-26T11:53:38;19.10;;;8.13;;
18695;SDS011;22617;43.690;27.956;2023-01-26T11:59:00;17.90;;;7.67;;
18695;SDS011;22617;43.690;27.956;2023-01-26T12:04:10;22.27;;;7.23;;
18695;SDS011;22617;43.690;27.956;2023-01-26T12:09:22;20.40;;;8.33;;
18695;SDS011;22617;43.690;27.956;2023-01-26T12:14:36;15.83;;;6.90;;
18695;SDS011;22617;43.690;27.956;2023-01-26T12:19:46;16.17;;;7.50;;
18695;SDS011;22617;43.690;27.956;2023-01-26T12:24:56;19.50;;;7.87;;
18695;SDS011;22617;43.690;27.956;2023-01-26T12:30:28;19.30;;;8.13;;
18695;SDS011;22617;43.690;27.956;2023-01-26T12:35:43;17.73;;;7.83;;
18695;SDS011;22617;43.690;27.956;2023-01-26T12:41:09;19.13;;;8.40;;
18695;SDS011;22617;43.690;27.956;2023-01-26T12:46:20;24.07;;;8.70;;
18695;SDS011;22617;43.690;27.956;2023-01-26T12:51:26;20.33;;;7.70;;
18695;SDS011;22617;43.690;27.956;2023-01-26T12:56:36;15.47;;;6.93;;
18695;SDS011;22617;43.690;27.956;2023-01-26T13:01:46;20.40;;;8.37;;
18695;SDS011;22617;43.690;27.956;2023-01-26T13:07:00;21.23;;;7.60;;
18695;SDS011;22617;43.690;27.956;2023-01-26T13:12:12;18.10;;;7.57;;
18695;SDS011;22617;43.690;27.956;2023-01-26T13:17:50;19.07;;;7.50;;
18695;SDS011;22617;43.690;27.956;2023-01-26T13:22:55;18.23;;;7.67;;
18695;SDS011;22617;43.690;27.956;2023-01-26T13:28:00;15.03;;;6.70;;
18695;SDS011;22617;43.690;27.956;2023-01-26T13:33:14;17.73;;;6.87;;
18695;SDS011;22617;43.690;27.956;2023-01-26T13:38:25;17.90;;;7.93;;
18695;SDS011;22617;43.690;27.956;2023-01-26T13:43:36;19.70;;;7.07;;
18695;SDS011;22617;43.690;27.956;2023-01-26T13:48:47;15.83;;;7.73;;
18695;SDS011;22617;43.690;27.956;2023-01-26T13:53:56;18.20;;;8.63;;
18695;SDS011;22617;43.690;27.956;2023-01-26T13:59:05;20.03;;;7.80;;
18695;SDS011;22617;43.690;27.956;2023-01-26T14:04:14;17.83;;;8.40;;
18695;SDS011;22617;43.690;27.956;2023-01-26T14:09:22;17.30;;;7.43;;
18695;SDS011;22617;43.690;27.956;2023-01-26T14:14:31;19.10;;;7.73;;
18695;SDS011;22617;43.690;27.956;2023-01-26T14:19:39;21.83;;;8.30;;
18695;SDS011;22617;43.690;27.956;2023-01-26T14:24:46;18.03;;;8.00;;
18695;SDS011;22617;43.690;27.956;2023-01-26T14:29:51;22.97;;;8.93;;
18695;SDS011;22617;43.690;27.956;2023-01-26T14:34:57;17.67;;;8.37;;
18695;SDS011;22617;43.690;27.956;2023-01-26T14:40:20;18.03;;;8.90;;
18695;SDS011;22617;43.690;27.956;2023-01-26T14:45:28;20.03;;;8.13;;
18695;SDS011;22617;43.690;27.956;2023-01-26T14:50:35;18.97;;;8.43;;
18695;SDS011;22617;43.690;27.956;2023-01-26T14:55:41;25.13;;;8.27;;
18695;SDS011;22617;43.690;27.956;2023-01-26T15:00:47;19.90;;;7.97;;
18695;SDS011;22617;43.690;27.956;2023-01-26T15:11:26;16.53;;;8.27;;
18695;SDS011;22617;43.690;27.956;2023-01-26T15:16:52;19.10;;;7.60;;
18695;SDS011;22617;43.690;27.956;2023-01-26T15:21:58;18.83;;;7.50;;
18695;SDS011;22617;43.690;27.956;2023-01-26T15:27:05;18.77;;;8.07;;
18695;SDS011;22617;43.690;27.956;2023-01-26T15:32:24;25.70;;;8.00;;
18695;SDS011;22617;43.690;27.956;2023-01-26T15:37:32;20.33;;;7.70;;
18695;SDS011;22617;43.690;27.956;2023-01-26T15:42:37;19.27;;;7.70;;
18695;SDS011;22617;43.690;27.956;2023-01-26T15:47:41;17.03;;;7.30;;
18695;SDS011;22617;43.690;27.956;2023-01-26T15:52:46;14.53;;;7.53;;
18695;SDS011;22617;43.690;27.956;2023-01-26T15:57:50;20.77;;;7.43;;
18695;SDS011;22617;43.690;27.956;2023-01-26T16:02:54;19.40;;;7.57;;
18695;SDS011;22617;43.690;27.956;2023-01-26T16:08:00;18.73;;;7.43;;
18695;SDS011;22617;43.690;27.956;2023-01-26T16:13:04;26.23;;;11.07;;
18695;SDS011;22617;43.690;27.956;2023-01-26T16:18:11;21.77;;;9.00;;
18695;SDS011;22617;43.690;27.956;2023-01-26T16:23:20;16.43;;;8.33;;
18695;SDS011;22617;43.690;27.956;2023-01-26T16:28:25;18.17;;;7.83;;
18695;SDS011;22617;43.690;27.956;2023-01-26T16:33:29;17.43;;;6.93;;
18695;SDS011;22617;43.690;27.956;2023-01-26T16:38:34;17.27;;;6.90;;
18695;SDS011;22617;43.690;27.956;2023-01-26T16:43:39;13.83;;;6.80;;
18695;SDS011;22617;43.690;27.956;2023-01-26T16:48:44;21.07;;;7.63;;
18695;SDS011;22617;43.690;27.956;2023-01-26T16:53:51;17.57;;;7.90;;
18695;SDS011;22617;43.690;27.956;2023-01-26T16:58:55;22.23;;;8.40;;
18695;SDS011;22617;43.690;27.956;2023-01-26T17:03:59;17.57;;;8.27;;
18695;SDS011;22617;43.690;27.956;2023-01-26T17:09:05;20.30;;;9.07;;
18695;SDS011;22617;43.690;27.956;2023-01-26T17:14:09;19.77;;;8.40;;
18695;SDS011;22617;43.690;27.956;2023-01-26T17:19:14;23.97;;;8.40;;
18695;SDS011;22617;43.690;27.956;2023-01-26T17:24:19;18.63;;;8.20;;
18695;SDS011;22617;43.690;27.956;2023-01-26T17:29:23;25.00;;;9.33;;
18695;SDS011;22617;43.690;27.956;2023-01-26T17:34:27;21.10;;;9.23;;
18695;SDS011;22617;43.690;27.956;2023-01-26T17:39:32;20.83;;;7.87;;
18695;SDS011;22617;43.690;27.956;2023-01-26T17:44:36;15.50;;;7.73;;
18695;SDS011;22617;43.690;27.956;2023-01-26T17:49:40;23.23;;;7.93;;
18695;SDS011;22617;43.690;27.956;2023-01-26T17:54:46;25.37;;;8.80;;
18695;SDS011;22617;43.690;27.956;2023-01-26T17:59:50;23.10;;;8.10;;
18695;SDS011;22617;43.690;27.956;2023-01-26T18:04:53;22.53;;;9.37;;
18695;SDS011;22617;43.690;27.956;2023-01-26T18:09:59;21.00;;;8.97;;
18695;SDS011;22617;43.690;27.956;2023-01-26T18:15:03;26.73;;;9.03;;
18695;SDS011;22617;43.690;27.956;2023-01-26T18:20:09;28.90;;;10.53;;
18695;SDS011;22617;43.690;27.956;2023-01-26T18:25:17;23.40;;;9.03;;
18695;SDS011;22617;43.690;27.956;2023-01-26T18:30:22;19.97;;;9.37;;
18695;SDS011;22617;43.690;27.956;2023-01-26T18:35:26;22.30;;;8.33;;
18695;SDS011;22617;43.690;27.956;2023-01-26T18:40:31;24.73;;;7.90;;
18695;SDS011;22617;43.690;27.956;2023-01-26T18:45:39;19.90;;;8.10;;
18695;SDS011;22617;43.690;27.956;2023-01-26T18:50:46;17.90;;;7.20;;
18695;SDS011;22617;43.690;27.956;2023-01-26T18:55:57;16.37;;;6.90;;
18695;SDS011;22617;43.690;27.956;2023-01-26T19:01:06;16.53;;;6.93;;
18695;SDS011;22617;43.690;27.956;2023-01-26T19:06:14;17.43;;;6.90;;
18695;SDS011;22617;43.690;27.956;2023-01-26T19:11:22;13.43;;;5.83;;
18695;SDS011;22617;43.690;27.956;2023-01-26T19:16:28;15.20;;;5.63;;
18695;SDS011;22617;43.690;27.956;2023-01-26T19:21:32;14.10;;;5.77;;
18695;SDS011;22617;43.690;27.956;2023-01-26T19:26:38;14.27;;;6.43;;
18695;SDS011;22617;43.690;27.956;2023-01-26T19:31:42;16.17;;;5.83;;
18695;SDS011;22617;43.690;27.956;2023-01-26T19:36:45;18.63;;;6.80;;
18695;SDS011;22617;43.690;27.956;2023-01-26T19:41:51;19.10;;;7.47;;
18695;SDS011;22617;43.690;27.956;2023-01-26T19:46:55;15.47;;;6.37;;
18695;SDS011;22617;43.690;27.956;2023-01-26T19:51:59;16.50;;;7.60;;
18695;SDS011;22617;43.690;27.956;2023-01-26T19:57:04;15.47;;;6.40;;
18695;SDS011;22617;43.690;27.956;2023-01-26T20:02:08;12.63;;;5.63;;
18695;SDS011;22617;43.690;27.956;2023-01-26T20:07:12;15.87;;;6.37;;
18695;SDS011;22617;43.690;27.956;2023-01-26T20:12:18;13.10;;;5.73;;
18695;SDS011;22617;43.690;27.956;2023-01-26T20:17:21;15.20;;;6.73;;
18695;SDS011;22617;43.690;27.956;2023-01-26T20:22:25;13.83;;;5.80;;
18695;SDS011;22617;43.690;27.956;2023-01-26T20:27:36;16.83;;;6.30;;
18695;SDS011;22617;43.690;27.956;2023-01-26T20:32:40;14.63;;;6.50;;
18695;SDS011;22617;43.690;27.956;2023-01-26T20:37:44;17.33;;;6.53;;
18695;SDS011;22617;43.690;27.956;2023-01-26T20:42:49;15.63;;;6.37;;
18695;SDS011;22617;43.690;27.956;2023-01-26T20:47:54;14.77;;;6.37;;
18695;SDS011;22617;43.690;27.956;2023-01-26T20:52:58;12.43;;;5.67;;
18695;SDS011;22617;43.690;27.956;2023-01-26T20:58:03;19.13;;;5.90;;
18695;SDS011;22617;43.690;27.956;2023-01-26T21:03:07;16.33;;;5.90;;
18695;SDS011;22617;43.690;27.956;2023-01-26T21:08:11;15.77;;;6.53;;
18695;SDS011;22617;43.690;27.956;2023-01-26T21:13:16;18.80;;;7.33;;
18695;SDS011;22617;43.690;27.956;2023-01-26T21:18:20;16.23;;;5.70;;
18695;SDS011;22617;43.690;27.956;2023-01-26T21:23:26;17.20;;;5.53;;
18695;SDS011;22617;43.690;27.956;2023-01-26T21:28:31;14.53;;;5.57;;
18695;SDS011;22617;43.690;27.956;2023-01-26T21:33:36;15.40;;;5.53;;
18695;SDS011;22617;43.690;27.956;2023-01-26T21:38:41;14.93;;;5.47;;
18695;SDS011;22617;43.690;27.956;2023-01-26T21:43:47;13.90;;;5.87;;
18695;SDS011;22617;43.690;27.956;2023-01-26T21:48:51;14.73;;;5.17;;
18695;SDS011;22617;43.690;27.956;2023-01-26T21:53:55;12.13;;;6.23;;
18695;SDS011;22617;43.690;27.956;2023-01-26T21:59:01;13.40;;;4.83;;
18695;SDS011;22617;43.690;27.956;2023-01-26T22:04:07;15.40;;;5.70;;
18695;SDS011;22617;43.690;27.956;2023-01-26T22:09:13;18.23;;;6.47;;
18695;SDS011;22617;43.690;27.956;2023-01-26T22:14:20;16.57;;;5.87;;
18695;SDS011;22617;43.690;27.956;2023-01-26T22:19:25;13.37;;;5.20;;
18695;SDS011;22617;43.690;27.956;2023-01-26T22:24:29;14.17;;;5.87;;
18695;SDS011;22617;43.690;27.956;2023-01-26T22:29:34;17.10;;;6.73;;
18695;SDS011;22617;43.690;27.956;2023-01-26T22:34:38;17.07;;;5.57;;
18695;SDS011;22617;43.690;27.956;2023-01-26T22:39:42;11.73;;;4.73;;
18695;SDS011;22617;43.690;27.956;2023-01-26T22:44:47;12.53;;;5.43;;
18695;SDS011;22617;43.690;27.956;2023-01-26T22:49:50;15.77;;;5.80;;
18695;SDS011;22617;43.690;27.956;2023-01-26T22:54:54;15.37;;;5.33;;
18695;SDS011;22617;43.690;27.956;2023-01-26T22:59:59;11.83;;;4.57;;
18695;SDS011;22617;43.690;27.956;2023-01-26T23:05:05;12.57;;;5.20;;
18695;SDS011;22617;43.690;27.956;2023-01-26T23:10:09;14.23;;;5.03;;
18695;SDS011;22617;43.690;27.956;2023-01-26T23:15:15;13.67;;;5.10;;
18695;SDS011;22617;43.690;27.956;2023-01-26T23:20:20;13.17;;;5.37;;
18695;SDS011;22617;43.690;27.956;2023-01-26T23:25:24;17.30;;;5.30;;
18695;SDS011;22617;43.690;27.956;2023-01-26T23:30:46;15.53;;;5.33;;
18695;SDS011;22617;43.690;27.956;2023-01-26T23:35:51;13.40;;;4.80;;
18695;SDS011;22617;43.690;27.956;2023-01-26T23:40:55;15.77;;;5.87;;
18695;SDS011;22617;43.690;27.956;2023-01-26T23:46:02;16.53;;;5.30;;
18695;SDS011;22617;43.690;27.956;2023-01-26T23:51:08;13.20;;;5.77;;
18695;SDS011;22617;43.690;27.956;2023-01-26T23:56:13;14.57;;;5.53;;
